sensor_id;sensor_type;location;lat;lon;timestamp;P1;durP1;ratioP1;P2;durP2;ratioP2
41829;SDS011;38614;43.472;23.936;2023-03-14T00:02:26;14.52;;;7.50;;
41829;SDS011;38614;43.472;23.936;2023-03-14T00:05:14;12.80;;;6.90;;
41829;SDS011;38614;43.472;23.936;2023-03-14T00:08:02;17.65;;;7.22;;
41829;SDS011;38614;43.472;23.936;2023-03-14T00:10:49;13.32;;;6.38;;
41829;SDS011;38614;43.472;23.936;2023-03-14T00:13:37;16.50;;;7.68;;
41829;SDS011;38614;43.472;23.936;2023-03-14T00:16:27;16.52;;;7.72;;
41829;SDS011;38614;43.472;23.936;2023-03-14T00:19:15;18.98;;;7.95;;
41829;SDS011;38614;43.472;23.936;2023-03-14T00:22:03;15.95;;;8.52;;
41829;SDS011;38614;43.472;23.936;2023-03-14T00:24:50;14.82;;;7.03;;
41829;SDS011;38614;43.472;23.936;2023-03-14T00:27:38;15.93;;;6.90;;
41829;SDS011;38614;43.472;23.936;2023-03-14T00:30:26;17.80;;;7.80;;
41829;SDS011;38614;43.472;23.936;2023-03-14T00:33:14;16.83;;;8.45;;
41829;SDS011;38614;43.472;23.936;2023-03-14T00:36:03;22.60;;;8.68;;
41829;SDS011;38614;43.472;23.936;2023-03-14T00:38:52;18.52;;;8.63;;
41829;SDS011;38614;43.472;23.936;2023-03-14T00:41:40;17.25;;;7.95;;
41829;SDS011;38614;43.472;23.936;2023-03-14T00:44:28;12.60;;;7.57;;
41829;SDS011;38614;43.472;23.936;2023-03-14T00:47:16;16.38;;;7.47;;
41829;SDS011;38614;43.472;23.936;2023-03-14T00:50:04;14.70;;;7.05;;
41829;SDS011;38614;43.472;23.936;2023-03-14T00:52:52;15.55;;;7.43;;
41829;SDS011;38614;43.472;23.936;2023-03-14T00:55:41;14.90;;;8.10;;
41829;SDS011;38614;43.472;23.936;2023-03-14T00:58:32;22.38;;;7.63;;
41829;SDS011;38614;43.472;23.936;2023-03-14T01:01:19;11.57;;;6.32;;
41829;SDS011;38614;43.472;23.936;2023-03-14T01:04:10;10.40;;;6.03;;
41829;SDS011;38614;43.472;23.936;2023-03-14T01:06:58;12.63;;;6.10;;
41829;SDS011;38614;43.472;23.936;2023-03-14T01:09:45;12.77;;;5.70;;
41829;SDS011;38614;43.472;23.936;2023-03-14T01:12:34;15.50;;;7.63;;
41829;SDS011;38614;43.472;23.936;2023-03-14T01:15:22;13.27;;;7.15;;
41829;SDS011;38614;43.472;23.936;2023-03-14T01:18:09;20.90;;;8.57;;
41829;SDS011;38614;43.472;23.936;2023-03-14T01:20:57;17.48;;;7.93;;
41829;SDS011;38614;43.472;23.936;2023-03-14T01:23:45;14.10;;;6.38;;
41829;SDS011;38614;43.472;23.936;2023-03-14T01:26:34;10.55;;;6.25;;
41829;SDS011;38614;43.472;23.936;2023-03-14T01:29:24;10.73;;;6.07;;
41829;SDS011;38614;43.472;23.936;2023-03-14T01:32:12;11.77;;;5.93;;
41829;SDS011;38614;43.472;23.936;2023-03-14T01:35:00;9.85;;;4.43;;
41829;SDS011;38614;43.472;23.936;2023-03-14T01:37:49;13.35;;;6.25;;
41829;SDS011;38614;43.472;23.936;2023-03-14T01:40:41;13.30;;;6.00;;
41829;SDS011;38614;43.472;23.936;2023-03-14T01:43:33;18.33;;;8.40;;
41829;SDS011;38614;43.472;23.936;2023-03-14T01:49:33;8.38;;;5.72;;
41829;SDS011;38614;43.472;23.936;2023-03-14T01:52:33;10.82;;;5.40;;
41829;SDS011;38614;43.472;23.936;2023-03-14T01:55:23;13.38;;;5.82;;
41829;SDS011;38614;43.472;23.936;2023-03-14T01:58:13;15.80;;;6.95;;
41829;SDS011;38614;43.472;23.936;2023-03-14T02:01:02;13.55;;;6.43;;
41829;SDS011;38614;43.472;23.936;2023-03-14T02:03:53;12.88;;;6.32;;
41829;SDS011;38614;43.472;23.936;2023-03-14T02:06:47;8.48;;;4.65;;
41829;SDS011;38614;43.472;23.936;2023-03-14T02:09:42;13.65;;;5.45;;
41829;SDS011;38614;43.472;23.936;2023-03-14T02:12:37;10.48;;;6.63;;
41829;SDS011;38614;43.472;23.936;2023-03-14T02:15:31;11.85;;;7.25;;
41829;SDS011;38614;43.472;23.936;2023-03-14T02:18:25;10.63;;;5.68;;
41829;SDS011;38614;43.472;23.936;2023-03-14T02:21:49;12.07;;;6.70;;
41829;SDS011;38614;43.472;23.936;2023-03-14T02:25:13;11.38;;;5.72;;
41829;SDS011;38614;43.472;23.936;2023-03-14T02:28:04;9.30;;;5.22;;
41829;SDS011;38614;43.472;23.936;2023-03-14T02:30:52;12.20;;;6.57;;
41829;SDS011;38614;43.472;23.936;2023-03-14T02:33:40;11.70;;;5.18;;
41829;SDS011;38614;43.472;23.936;2023-03-14T02:36:28;14.57;;;7.28;;
41829;SDS011;38614;43.472;23.936;2023-03-14T02:39:22;7.50;;;5.75;;
41829;SDS011;38614;43.472;23.936;2023-03-14T02:42:15;8.43;;;5.10;;
41829;SDS011;38614;43.472;23.936;2023-03-14T02:47:59;9.85;;;5.43;;
41829;SDS011;38614;43.472;23.936;2023-03-14T02:50:56;13.75;;;7.22;;
41829;SDS011;38614;43.472;23.936;2023-03-14T02:53:47;11.23;;;6.47;;
41829;SDS011;38614;43.472;23.936;2023-03-14T02:56:37;15.65;;;6.10;;
41829;SDS011;38614;43.472;23.936;2023-03-14T02:59:26;8.77;;;6.90;;
41829;SDS011;38614;43.472;23.936;2023-03-14T03:02:17;11.27;;;5.75;;
41829;SDS011;38614;43.472;23.936;2023-03-14T03:05:05;12.55;;;5.40;;
41829;SDS011;38614;43.472;23.936;2023-03-14T03:07:53;18.80;;;6.22;;
41829;SDS011;38614;43.472;23.936;2023-03-14T03:10:41;11.55;;;5.75;;
41829;SDS011;38614;43.472;23.936;2023-03-14T03:13:29;14.80;;;9.50;;
41829;SDS011;38614;43.472;23.936;2023-03-14T03:16:18;13.27;;;6.68;;
41829;SDS011;38614;43.472;23.936;2023-03-14T03:19:06;11.02;;;6.70;;
41829;SDS011;38614;43.472;23.936;2023-03-14T03:21:53;15.13;;;6.15;;
41829;SDS011;38614;43.472;23.936;2023-03-14T03:24:48;14.13;;;7.13;;
41829;SDS011;38614;43.472;23.936;2023-03-14T03:27:36;19.48;;;8.00;;
41829;SDS011;38614;43.472;23.936;2023-03-14T03:30:25;16.65;;;7.80;;
41829;SDS011;38614;43.472;23.936;2023-03-14T03:33:13;26.77;;;9.00;;
41829;SDS011;38614;43.472;23.936;2023-03-14T03:36:03;41.70;;;15.30;;
41829;SDS011;38614;43.472;23.936;2023-03-14T03:38:55;40.10;;;15.43;;
41829;SDS011;38614;43.472;23.936;2023-03-14T03:41:43;19.98;;;9.48;;
41829;SDS011;38614;43.472;23.936;2023-03-14T03:44:31;26.58;;;11.45;;
41829;SDS011;38614;43.472;23.936;2023-03-14T03:47:20;23.25;;;11.05;;
41829;SDS011;38614;43.472;23.936;2023-03-14T03:50:08;25.58;;;10.60;;
41829;SDS011;38614;43.472;23.936;2023-03-14T03:52:57;19.63;;;10.25;;
41829;SDS011;38614;43.472;23.936;2023-03-14T03:55:44;25.52;;;10.27;;
41829;SDS011;38614;43.472;23.936;2023-03-14T03:58:33;23.45;;;10.32;;
41829;SDS011;38614;43.472;23.936;2023-03-14T04:01:22;23.58;;;10.68;;
41829;SDS011;38614;43.472;23.936;2023-03-14T04:04:12;21.90;;;9.27;;
41829;SDS011;38614;43.472;23.936;2023-03-14T04:07:01;15.85;;;8.27;;
41829;SDS011;38614;43.472;23.936;2023-03-14T04:09:52;16.25;;;9.23;;
41829;SDS011;38614;43.472;23.936;2023-03-14T04:13:02;24.67;;;10.18;;
41829;SDS011;38614;43.472;23.936;2023-03-14T04:15:52;23.45;;;10.63;;
41829;SDS011;38614;43.472;23.936;2023-03-14T04:21:32;26.40;;;9.75;;
41829;SDS011;38614;43.472;23.936;2023-03-14T04:24:20;28.00;;;11.10;;
41829;SDS011;38614;43.472;23.936;2023-03-14T04:27:09;26.15;;;11.35;;
41829;SDS011;38614;43.472;23.936;2023-03-14T04:29:57;26.75;;;11.68;;
41829;SDS011;38614;43.472;23.936;2023-03-14T04:33:03;25.42;;;12.20;;
41829;SDS011;38614;43.472;23.936;2023-03-14T04:35:54;29.08;;;10.55;;
41829;SDS011;38614;43.472;23.936;2023-03-14T04:38:43;29.75;;;10.70;;
41829;SDS011;38614;43.472;23.936;2023-03-14T04:41:46;42.83;;;13.20;;
41829;SDS011;38614;43.472;23.936;2023-03-14T04:49:55;30.17;;;13.80;;
41829;SDS011;38614;43.472;23.936;2023-03-14T04:52:44;23.33;;;12.95;;
41829;SDS011;38614;43.472;23.936;2023-03-14T04:55:32;41.25;;;13.35;;
41829;SDS011;38614;43.472;23.936;2023-03-14T04:58:21;30.67;;;12.20;;
41829;SDS011;38614;43.472;23.936;2023-03-14T05:01:12;23.67;;;13.37;;
41829;SDS011;38614;43.472;23.936;2023-03-14T05:04:07;30.13;;;12.95;;
41829;SDS011;38614;43.472;23.936;2023-03-14T05:07:10;29.40;;;12.57;;
41829;SDS011;38614;43.472;23.936;2023-03-14T05:10:14;27.88;;;11.40;;
41829;SDS011;38614;43.472;23.936;2023-03-14T05:13:25;34.58;;;11.68;;
41829;SDS011;38614;43.472;23.936;2023-03-14T05:16:38;36.70;;;9.95;;
41829;SDS011;38614;43.472;23.936;2023-03-14T05:19:36;14.25;;;7.40;;
41829;SDS011;38614;43.472;23.936;2023-03-14T05:22:44;13.60;;;8.52;;
41829;SDS011;38614;43.472;23.936;2023-03-14T05:25:52;19.15;;;7.30;;
41829;SDS011;38614;43.472;23.936;2023-03-14T05:29:00;24.58;;;10.48;;
41829;SDS011;38614;43.472;23.936;2023-03-14T05:31:58;24.52;;;9.85;;
41829;SDS011;38614;43.472;23.936;2023-03-14T05:35:04;10.82;;;6.43;;
41829;SDS011;38614;43.472;23.936;2023-03-14T05:38:15;25.83;;;9.55;;
41829;SDS011;38614;43.472;23.936;2023-03-14T05:41:25;26.17;;;11.43;;
41829;SDS011;38614;43.472;23.936;2023-03-14T05:44:39;51.25;;;19.48;;
41829;SDS011;38614;43.472;23.936;2023-03-14T05:47:33;30.15;;;11.18;;
41829;SDS011;38614;43.472;23.936;2023-03-14T05:50:56;24.42;;;8.48;;
41829;SDS011;38614;43.472;23.936;2023-03-14T05:53:57;20.63;;;7.47;;
41829;SDS011;38614;43.472;23.936;2023-03-14T05:57:17;24.88;;;7.95;;
41829;SDS011;38614;43.472;23.936;2023-03-14T06:00:24;14.88;;;6.40;;
41829;SDS011;38614;43.472;23.936;2023-03-14T06:03:32;17.63;;;9.13;;
41829;SDS011;38614;43.472;23.936;2023-03-14T06:06:20;18.33;;;7.65;;
41829;SDS011;38614;43.472;23.936;2023-03-14T06:09:10;8.68;;;5.70;;
41829;SDS011;38614;43.472;23.936;2023-03-14T06:12:01;15.05;;;6.05;;
41829;SDS011;38614;43.472;23.936;2023-03-14T06:14:55;6.93;;;4.43;;
41829;SDS011;38614;43.472;23.936;2023-03-14T06:17:43;16.98;;;5.75;;
41829;SDS011;38614;43.472;23.936;2023-03-14T06:20:32;12.93;;;7.28;;
41829;SDS011;38614;43.472;23.936;2023-03-14T06:23:22;12.07;;;6.53;;
41829;SDS011;38614;43.472;23.936;2023-03-14T06:26:11;9.88;;;6.88;;
41829;SDS011;38614;43.472;23.936;2023-03-14T06:28:58;11.90;;;6.35;;
41829;SDS011;38614;43.472;23.936;2023-03-14T06:31:52;14.32;;;6.65;;
41829;SDS011;38614;43.472;23.936;2023-03-14T06:34:39;17.50;;;7.68;;
41829;SDS011;38614;43.472;23.936;2023-03-14T06:37:28;9.23;;;6.03;;
41829;SDS011;38614;43.472;23.936;2023-03-14T06:40:17;11.38;;;6.57;;
41829;SDS011;38614;43.472;23.936;2023-03-14T06:43:25;16.17;;;5.93;;
41829;SDS011;38614;43.472;23.936;2023-03-14T06:46:14;12.23;;;6.82;;
41829;SDS011;38614;43.472;23.936;2023-03-14T06:49:03;14.20;;;7.32;;
41829;SDS011;38614;43.472;23.936;2023-03-14T06:51:53;8.32;;;5.68;;
41829;SDS011;38614;43.472;23.936;2023-03-14T06:54:41;8.75;;;5.78;;
41829;SDS011;38614;43.472;23.936;2023-03-14T06:57:28;21.02;;;6.15;;
41829;SDS011;38614;43.472;23.936;2023-03-14T07:00:17;9.77;;;5.13;;
41829;SDS011;38614;43.472;23.936;2023-03-14T07:03:05;13.40;;;5.15;;
41829;SDS011;38614;43.472;23.936;2023-03-14T07:08:45;11.90;;;5.78;;
41829;SDS011;38614;43.472;23.936;2023-03-14T07:11:36;10.48;;;5.80;;
41829;SDS011;38614;43.472;23.936;2023-03-14T07:14:24;12.27;;;4.85;;
41829;SDS011;38614;43.472;23.936;2023-03-14T07:17:13;14.20;;;5.50;;
41829;SDS011;38614;43.472;23.936;2023-03-14T07:20:01;9.25;;;5.18;;
41829;SDS011;38614;43.472;23.936;2023-03-14T07:22:54;7.45;;;5.00;;
41829;SDS011;38614;43.472;23.936;2023-03-14T07:25:54;12.02;;;6.20;;
41829;SDS011;38614;43.472;23.936;2023-03-14T07:28:44;12.20;;;6.85;;
41829;SDS011;38614;43.472;23.936;2023-03-14T07:31:36;10.63;;;5.90;;
41829;SDS011;38614;43.472;23.936;2023-03-14T07:34:24;12.25;;;6.85;;
41829;SDS011;38614;43.472;23.936;2023-03-14T07:37:16;15.77;;;4.07;;
41829;SDS011;38614;43.472;23.936;2023-03-14T07:40:04;10.43;;;5.03;;
41829;SDS011;38614;43.472;23.936;2023-03-14T07:42:56;14.73;;;5.22;;
41829;SDS011;38614;43.472;23.936;2023-03-14T07:46:00;9.38;;;5.63;;
41829;SDS011;38614;43.472;23.936;2023-03-14T07:48:48;8.07;;;5.05;;
41829;SDS011;38614;43.472;23.936;2023-03-14T07:51:36;4.82;;;4.07;;
41829;SDS011;38614;43.472;23.936;2023-03-14T07:54:23;8.05;;;4.88;;
41829;SDS011;38614;43.472;23.936;2023-03-14T07:57:14;9.63;;;4.93;;
41829;SDS011;38614;43.472;23.936;2023-03-14T08:00:04;7.60;;;4.22;;
41829;SDS011;38614;43.472;23.936;2023-03-14T08:02:58;7.13;;;4.75;;
41829;SDS011;38614;43.472;23.936;2023-03-14T08:05:47;8.73;;;4.55;;
41829;SDS011;38614;43.472;23.936;2023-03-14T08:08:35;13.27;;;4.80;;
41829;SDS011;38614;43.472;23.936;2023-03-14T08:11:22;6.30;;;4.38;;
41829;SDS011;38614;43.472;23.936;2023-03-14T08:14:10;5.85;;;4.63;;
41829;SDS011;38614;43.472;23.936;2023-03-14T08:16:58;6.43;;;4.47;;
41829;SDS011;38614;43.472;23.936;2023-03-14T08:19:46;8.32;;;4.25;;
41829;SDS011;38614;43.472;23.936;2023-03-14T08:22:34;6.13;;;4.03;;
41829;SDS011;38614;43.472;23.936;2023-03-14T08:25:22;10.23;;;4.38;;
41829;SDS011;38614;43.472;23.936;2023-03-14T08:28:09;11.40;;;4.63;;
41829;SDS011;38614;43.472;23.936;2023-03-14T08:30:57;8.25;;;4.35;;
41829;SDS011;38614;43.472;23.936;2023-03-14T08:33:45;7.07;;;4.20;;
41829;SDS011;38614;43.472;23.936;2023-03-14T08:36:33;6.70;;;4.63;;
41829;SDS011;38614;43.472;23.936;2023-03-14T08:39:21;6.47;;;4.70;;
41829;SDS011;38614;43.472;23.936;2023-03-14T08:42:09;7.07;;;4.50;;
41829;SDS011;38614;43.472;23.936;2023-03-14T08:44:56;8.90;;;4.70;;
41829;SDS011;38614;43.472;23.936;2023-03-14T08:47:44;11.93;;;4.05;;
41829;SDS011;38614;43.472;23.936;2023-03-14T08:50:33;8.10;;;4.57;;
41829;SDS011;38614;43.472;23.936;2023-03-14T08:53:21;11.93;;;5.57;;
41829;SDS011;38614;43.472;23.936;2023-03-14T08:56:09;7.97;;;4.25;;
41829;SDS011;38614;43.472;23.936;2023-03-14T08:58:57;8.93;;;4.45;;
41829;SDS011;38614;43.472;23.936;2023-03-14T09:01:45;8.27;;;4.80;;
41829;SDS011;38614;43.472;23.936;2023-03-14T09:04:32;9.35;;;4.35;;
41829;SDS011;38614;43.472;23.936;2023-03-14T09:07:20;6.45;;;4.32;;
41829;SDS011;38614;43.472;23.936;2023-03-14T09:10:08;8.40;;;4.30;;
41829;SDS011;38614;43.472;23.936;2023-03-14T09:12:56;9.75;;;4.22;;
41829;SDS011;38614;43.472;23.936;2023-03-14T09:15:49;5.65;;;3.60;;
41829;SDS011;38614;43.472;23.936;2023-03-14T09:18:38;4.45;;;3.22;;
41829;SDS011;38614;43.472;23.936;2023-03-14T09:21:26;3.47;;;2.70;;
41829;SDS011;38614;43.472;23.936;2023-03-14T09:24:14;7.50;;;2.47;;
41829;SDS011;38614;43.472;23.936;2023-03-14T09:27:05;5.05;;;2.47;;
41829;SDS011;38614;43.472;23.936;2023-03-14T09:32:43;6.90;;;2.95;;
41829;SDS011;38614;43.472;23.936;2023-03-14T09:35:33;6.32;;;3.20;;
41829;SDS011;38614;43.472;23.936;2023-03-14T09:38:21;5.93;;;2.72;;
41829;SDS011;38614;43.472;23.936;2023-03-14T09:41:44;4.82;;;2.70;;
41829;SDS011;38614;43.472;23.936;2023-03-14T09:44:30;3.05;;;2.03;;
41829;SDS011;38614;43.472;23.936;2023-03-14T09:47:19;2.63;;;2.08;;
41829;SDS011;38614;43.472;23.936;2023-03-14T09:50:17;7.22;;;2.28;;
41829;SDS011;38614;43.472;23.936;2023-03-14T09:53:06;3.55;;;2.45;;
41829;SDS011;38614;43.472;23.936;2023-03-14T09:55:59;6.15;;;3.08;;
41829;SDS011;38614;43.472;23.936;2023-03-14T09:58:57;4.35;;;3.17;;
41829;SDS011;38614;43.472;23.936;2023-03-14T10:01:47;8.98;;;2.88;;
41829;SDS011;38614;43.472;23.936;2023-03-14T10:04:35;5.93;;;3.67;;
41829;SDS011;38614;43.472;23.936;2023-03-14T10:07:32;5.07;;;3.03;;
41829;SDS011;38614;43.472;23.936;2023-03-14T10:10:22;5.57;;;4.13;;
41829;SDS011;38614;43.472;23.936;2023-03-14T10:13:22;4.68;;;2.63;;
41829;SDS011;38614;43.472;23.936;2023-03-14T10:16:13;5.25;;;2.85;;
41829;SDS011;38614;43.472;23.936;2023-03-14T10:19:13;4.15;;;2.35;;
41829;SDS011;38614;43.472;23.936;2023-03-14T10:22:29;2.42;;;1.80;;
41829;SDS011;38614;43.472;23.936;2023-03-14T10:25:25;3.47;;;1.58;;
41829;SDS011;38614;43.472;23.936;2023-03-14T10:28:28;2.97;;;1.30;;
41829;SDS011;38614;43.472;23.936;2023-03-14T10:34:09;6.63;;;1.52;;
41829;SDS011;38614;43.472;23.936;2023-03-14T10:37:24;2.67;;;0.93;;
41829;SDS011;38614;43.472;23.936;2023-03-14T10:40:14;0.85;;;0.65;;
41829;SDS011;38614;43.472;23.936;2023-03-14T10:43:07;1.35;;;0.85;;
41829;SDS011;38614;43.472;23.936;2023-03-14T10:46:09;4.10;;;0.90;;
41829;SDS011;38614;43.472;23.936;2023-03-14T10:49:38;2.67;;;0.73;;
41829;SDS011;38614;43.472;23.936;2023-03-14T10:52:46;2.80;;;1.13;;
41829;SDS011;38614;43.472;23.936;2023-03-14T10:55:55;2.17;;;0.82;;
41829;SDS011;38614;43.472;23.936;2023-03-14T10:58:44;1.92;;;1.25;;
41829;SDS011;38614;43.472;23.936;2023-03-14T11:01:39;2.38;;;1.25;;
41829;SDS011;38614;43.472;23.936;2023-03-14T11:07:38;1.42;;;1.17;;
41829;SDS011;38614;43.472;23.936;2023-03-14T11:10:35;1.85;;;1.35;;
41829;SDS011;38614;43.472;23.936;2023-03-14T11:13:33;2.50;;;1.42;;
41829;SDS011;38614;43.472;23.936;2023-03-14T11:25:52;1.63;;;1.15;;
41829;SDS011;38614;43.472;23.936;2023-03-14T11:28:50;3.45;;;1.00;;
41829;SDS011;38614;43.472;23.936;2023-03-14T11:31:44;3.30;;;1.40;;
41829;SDS011;38614;43.472;23.936;2023-03-14T11:34:36;3.00;;;1.40;;
41829;SDS011;38614;43.472;23.936;2023-03-14T11:37:41;3.75;;;1.50;;
41829;SDS011;38614;43.472;23.936;2023-03-14T11:40:37;3.47;;;1.42;;
41829;SDS011;38614;43.472;23.936;2023-03-14T11:46:34;5.88;;;1.05;;
41829;SDS011;38614;43.472;23.936;2023-03-14T11:55:51;4.35;;;0.95;;
41829;SDS011;38614;43.472;23.936;2023-03-14T11:58:42;1.38;;;1.02;;
41829;SDS011;38614;43.472;23.936;2023-03-14T12:01:49;1.58;;;1.05;;
41829;SDS011;38614;43.472;23.936;2023-03-14T12:04:43;6.18;;;1.10;;
41829;SDS011;38614;43.472;23.936;2023-03-14T12:07:43;2.15;;;1.17;;
41829;SDS011;38614;43.472;23.936;2023-03-14T12:10:59;0.93;;;0.70;;
41829;SDS011;38614;43.472;23.936;2023-03-14T12:13:52;2.22;;;1.25;;
41829;SDS011;38614;43.472;23.936;2023-03-14T12:16:40;2.55;;;0.85;;
41829;SDS011;38614;43.472;23.936;2023-03-14T12:19:33;0.68;;;0.45;;
41829;SDS011;38614;43.472;23.936;2023-03-14T12:22:25;2.63;;;0.80;;
41829;SDS011;38614;43.472;23.936;2023-03-14T12:25:30;1.30;;;0.80;;
41829;SDS011;38614;43.472;23.936;2023-03-14T12:28:30;1.45;;;0.82;;
41829;SDS011;38614;43.472;23.936;2023-03-14T12:40:21;0.60;;;0.45;;
41829;SDS011;38614;43.472;23.936;2023-03-14T12:43:26;1.40;;;0.57;;
41829;SDS011;38614;43.472;23.936;2023-03-14T12:46:26;0.90;;;0.50;;
41829;SDS011;38614;43.472;23.936;2023-03-14T12:49:15;2.95;;;0.57;;
41829;SDS011;38614;43.472;23.936;2023-03-14T12:52:10;4.97;;;0.93;;
41829;SDS011;38614;43.472;23.936;2023-03-14T13:01:22;4.80;;;0.40;;
41829;SDS011;38614;43.472;23.936;2023-03-14T13:04:10;1.17;;;0.40;;
41829;SDS011;38614;43.472;23.936;2023-03-14T13:07:00;1.45;;;0.68;;
41829;SDS011;38614;43.472;23.936;2023-03-14T13:09:50;1.77;;;0.50;;
41829;SDS011;38614;43.472;23.936;2023-03-14T13:12:51;1.75;;;0.68;;
41829;SDS011;38614;43.472;23.936;2023-03-14T13:15:43;1.35;;;0.60;;
41829;SDS011;38614;43.472;23.936;2023-03-14T13:18:37;2.13;;;0.50;;
41829;SDS011;38614;43.472;23.936;2023-03-14T13:21:33;4.88;;;0.65;;
41829;SDS011;38614;43.472;23.936;2023-03-14T13:24:23;1.10;;;0.52;;
41829;SDS011;38614;43.472;23.936;2023-03-14T13:27:19;2.35;;;0.60;;
41829;SDS011;38614;43.472;23.936;2023-03-14T13:30:16;0.75;;;0.40;;
41829;SDS011;38614;43.472;23.936;2023-03-14T13:33:11;1.15;;;0.50;;
41829;SDS011;38614;43.472;23.936;2023-03-14T13:36:05;1.48;;;0.75;;
41829;SDS011;38614;43.472;23.936;2023-03-14T13:38:57;5.43;;;0.77;;
41829;SDS011;38614;43.472;23.936;2023-03-14T13:41:46;1.98;;;0.63;;
41829;SDS011;38614;43.472;23.936;2023-03-14T13:44:39;3.38;;;0.60;;
41829;SDS011;38614;43.472;23.936;2023-03-14T13:47:28;1.63;;;0.38;;
41829;SDS011;38614;43.472;23.936;2023-03-14T13:50:17;5.90;;;0.95;;
41829;SDS011;38614;43.472;23.936;2023-03-14T13:53:09;1.35;;;0.40;;
41829;SDS011;38614;43.472;23.936;2023-03-14T13:56:01;1.40;;;0.50;;
41829;SDS011;38614;43.472;23.936;2023-03-14T13:58:51;2.40;;;0.80;;
41829;SDS011;38614;43.472;23.936;2023-03-14T14:01:46;2.20;;;0.45;;
41829;SDS011;38614;43.472;23.936;2023-03-14T14:04:35;5.20;;;0.40;;
41829;SDS011;38614;43.472;23.936;2023-03-14T14:07:24;0.93;;;0.40;;
41829;SDS011;38614;43.472;23.936;2023-03-14T14:10:12;7.38;;;3.45;;
41829;SDS011;38614;43.472;23.936;2023-03-14T14:13:01;2.67;;;0.60;;
41829;SDS011;38614;43.472;23.936;2023-03-14T14:15:51;1.98;;;0.65;;
41829;SDS011;38614;43.472;23.936;2023-03-14T14:18:41;3.92;;;1.50;;
41829;SDS011;38614;43.472;23.936;2023-03-14T14:21:29;1.27;;;0.50;;
41829;SDS011;38614;43.472;23.936;2023-03-14T14:24:18;5.85;;;0.90;;
41829;SDS011;38614;43.472;23.936;2023-03-14T14:30:05;1.55;;;0.80;;
41829;SDS011;38614;43.472;23.936;2023-03-14T14:33:21;2.15;;;0.80;;
41829;SDS011;38614;43.472;23.936;2023-03-14T14:36:14;3.88;;;1.20;;
41829;SDS011;38614;43.472;23.936;2023-03-14T14:42:15;1.65;;;1.55;;
41829;SDS011;38614;43.472;23.936;2023-03-14T14:45:06;2.30;;;0.55;;
41829;SDS011;38614;43.472;23.936;2023-03-14T14:48:06;2.75;;;0.80;;
41829;SDS011;38614;43.472;23.936;2023-03-14T14:51:01;1.10;;;0.70;;
41829;SDS011;38614;43.472;23.936;2023-03-14T14:53:59;2.30;;;0.40;;
41829;SDS011;38614;43.472;23.936;2023-03-14T14:57:12;1.73;;;0.63;;
41829;SDS011;38614;43.472;23.936;2023-03-14T15:00:06;2.55;;;0.85;;
41829;SDS011;38614;43.472;23.936;2023-03-14T15:02:59;1.92;;;0.50;;
41829;SDS011;38614;43.472;23.936;2023-03-14T15:05:47;4.00;;;0.80;;
41829;SDS011;38614;43.472;23.936;2023-03-14T15:08:35;2.70;;;1.38;;
41829;SDS011;38614;43.472;23.936;2023-03-14T15:11:25;4.20;;;2.00;;
41829;SDS011;38614;43.472;23.936;2023-03-14T15:14:14;13.32;;;1.58;;
41829;SDS011;38614;43.472;23.936;2023-03-14T15:17:02;3.92;;;1.08;;
41829;SDS011;38614;43.472;23.936;2023-03-14T15:19:50;3.60;;;2.03;;
41829;SDS011;38614;43.472;23.936;2023-03-14T15:22:37;8.27;;;2.42;;
41829;SDS011;38614;43.472;23.936;2023-03-14T15:25:25;5.68;;;2.40;;
41829;SDS011;38614;43.472;23.936;2023-03-14T15:28:34;5.47;;;3.15;;
41829;SDS011;38614;43.472;23.936;2023-03-14T15:31:21;7.25;;;1.88;;
41829;SDS011;38614;43.472;23.936;2023-03-14T15:34:09;3.05;;;1.60;;
41829;SDS011;38614;43.472;23.936;2023-03-14T15:36:57;4.72;;;1.42;;
41829;SDS011;38614;43.472;23.936;2023-03-14T15:39:45;1.95;;;1.15;;
41829;SDS011;38614;43.472;23.936;2023-03-14T15:42:33;6.43;;;5.15;;
41829;SDS011;38614;43.472;23.936;2023-03-14T15:45:20;6.13;;;3.47;;
41829;SDS011;38614;43.472;23.936;2023-03-14T15:48:18;6.63;;;0.80;;
41829;SDS011;38614;43.472;23.936;2023-03-14T15:51:08;10.18;;;1.77;;
41829;SDS011;38614;43.472;23.936;2023-03-14T15:53:55;1.40;;;0.50;;
41829;SDS011;38614;43.472;23.936;2023-03-14T15:56:43;3.30;;;1.05;;
41829;SDS011;38614;43.472;23.936;2023-03-14T15:59:31;2.22;;;0.63;;
41829;SDS011;38614;43.472;23.936;2023-03-14T16:02:19;1.50;;;1.00;;
41829;SDS011;38614;43.472;23.936;2023-03-14T16:05:10;1.38;;;1.25;;
41829;SDS011;38614;43.472;23.936;2023-03-14T16:10:48;11.18;;;5.95;;
41829;SDS011;38614;43.472;23.936;2023-03-14T16:13:36;23.38;;;7.63;;
41829;SDS011;38614;43.472;23.936;2023-03-14T16:16:24;9.75;;;4.43;;
41829;SDS011;38614;43.472;23.936;2023-03-14T16:19:12;12.75;;;3.72;;
41829;SDS011;38614;43.472;23.936;2023-03-14T16:22:00;19.02;;;5.75;;
41829;SDS011;38614;43.472;23.936;2023-03-14T16:24:48;18.98;;;7.45;;
41829;SDS011;38614;43.472;23.936;2023-03-14T16:27:38;61.47;;;24.52;;
41829;SDS011;38614;43.472;23.936;2023-03-14T16:30:26;33.75;;;13.40;;
41829;SDS011;38614;43.472;23.936;2023-03-14T16:33:14;20.50;;;8.18;;
41829;SDS011;38614;43.472;23.936;2023-03-14T16:36:03;23.77;;;10.07;;
41829;SDS011;38614;43.472;23.936;2023-03-14T16:38:54;18.25;;;6.22;;
41829;SDS011;38614;43.472;23.936;2023-03-14T16:41:42;47.85;;;19.27;;
41829;SDS011;38614;43.472;23.936;2023-03-14T16:44:36;44.47;;;19.10;;
41829;SDS011;38614;43.472;23.936;2023-03-14T16:47:24;18.92;;;7.50;;
41829;SDS011;38614;43.472;23.936;2023-03-14T16:50:11;15.55;;;6.35;;
41829;SDS011;38614;43.472;23.936;2023-03-14T16:53:02;28.90;;;12.20;;
41829;SDS011;38614;43.472;23.936;2023-03-14T16:55:49;30.67;;;14.50;;
41829;SDS011;38614;43.472;23.936;2023-03-14T16:58:37;36.50;;;16.25;;
41829;SDS011;38614;43.472;23.936;2023-03-14T17:01:26;51.60;;;22.20;;
41829;SDS011;38614;43.472;23.936;2023-03-14T17:04:13;21.02;;;9.82;;
41829;SDS011;38614;43.472;23.936;2023-03-14T17:07:01;26.00;;;14.45;;
41829;SDS011;38614;43.472;23.936;2023-03-14T17:09:49;15.55;;;8.35;;
41829;SDS011;38614;43.472;23.936;2023-03-14T17:12:38;14.02;;;5.95;;
41829;SDS011;38614;43.472;23.936;2023-03-14T17:15:25;13.43;;;6.22;;
41829;SDS011;38614;43.472;23.936;2023-03-14T17:18:13;12.90;;;5.65;;
41829;SDS011;38614;43.472;23.936;2023-03-14T17:21:01;19.55;;;5.60;;
41829;SDS011;38614;43.472;23.936;2023-03-14T17:23:49;24.98;;;5.97;;
41829;SDS011;38614;43.472;23.936;2023-03-14T17:26:37;20.42;;;7.88;;
41829;SDS011;38614;43.472;23.936;2023-03-14T17:29:25;11.73;;;3.75;;
41829;SDS011;38614;43.472;23.936;2023-03-14T17:32:13;8.25;;;2.90;;
41829;SDS011;38614;43.472;23.936;2023-03-14T17:35:02;9.52;;;2.38;;
41829;SDS011;38614;43.472;23.936;2023-03-14T17:37:50;19.98;;;10.07;;
41829;SDS011;38614;43.472;23.936;2023-03-14T17:40:37;15.63;;;7.55;;
41829;SDS011;38614;43.472;23.936;2023-03-14T17:43:25;12.60;;;3.80;;
41829;SDS011;38614;43.472;23.936;2023-03-14T17:46:13;14.82;;;3.38;;
41829;SDS011;38614;43.472;23.936;2023-03-14T17:49:03;8.85;;;3.53;;
41829;SDS011;38614;43.472;23.936;2023-03-14T17:51:50;14.32;;;4.80;;
41829;SDS011;38614;43.472;23.936;2023-03-14T17:54:38;6.00;;;2.17;;
41829;SDS011;38614;43.472;23.936;2023-03-14T17:57:27;16.17;;;4.68;;
41829;SDS011;38614;43.472;23.936;2023-03-14T18:00:15;21.30;;;7.80;;
41829;SDS011;38614;43.472;23.936;2023-03-14T18:03:03;6.68;;;3.25;;